sensor_id;sensor_type;location;lat;lon;timestamp;pressure;altitude;pressure_sealevel;temperature;humidity
78014;BME280;67222;50.182;8.734;2023-07-13T04:31:31;100504.03;;;16.45;62.05
78014;BME280;67222;50.182;8.734;2023-07-13T04:33:57;100514.31;;;16.48;61.86
78014;BME280;67222;50.182;8.734;2023-07-13T04:36:22;100508.94;;;16.48;62.18
78014;BME280;67222;50.182;8.734;2023-07-13T04:38:48;100506.34;;;16.53;61.73
78014;BME280;67222;50.182;8.734;2023-07-13T04:41:15;100504.34;;;16.60;62.04
78014;BME280;67222;50.182;8.734;2023-07-13T04:43:40;100509.47;;;16.62;61.35
78014;BME280;67222;50.182;8.734;2023-07-13T04:46:07;100504.88;;;16.74;59.99
78014;BME280;67222;50.182;8.734;2023-07-13T04:48:33;100508.47;;;16.80;61.33
78014;BME280;67222;50.182;8.734;2023-07-13T04:50:59;100508.88;;;16.88;61.32
78014;BME280;67222;50.182;8.734;2023-07-13T04:53:25;100513.88;;;16.97;59.51
78014;BME280;67222;50.182;8.734;2023-07-13T04:55:51;100514.22;;;17.00;60.42
78014;BME280;67222;50.182;8.734;2023-07-13T04:58:16;100509.56;;;17.12;59.84
78014;BME280;67222;50.182;8.734;2023-07-13T05:00:42;100507.44;;;17.14;59.22
78014;BME280;67222;50.182;8.734;2023-07-13T05:03:07;100508.41;;;17.25;59.14
78014;BME280;67222;50.182;8.734;2023-07-13T05:05:32;100509.78;;;17.27;58.36
78014;BME280;67222;50.182;8.734;2023-07-13T05:07:59;100512.97;;;17.41;58.47
78014;BME280;67222;50.182;8.734;2023-07-13T05:10:24;100513.66;;;17.48;57.86
78014;BME280;67222;50.182;8.734;2023-07-13T05:12:50;100509.44;;;17.58;58.14
78014;BME280;67222;50.182;8.734;2023-07-13T05:15:16;100511.72;;;17.66;57.64
78014;BME280;67222;50.182;8.734;2023-07-13T05:17:45;100510.34;;;17.63;57.47
78014;BME280;67222;50.182;8.734;2023-07-13T05:20:11;100513.72;;;17.70;56.50
78014;BME280;67222;50.182;8.734;2023-07-13T05:22:36;100524.06;;;17.78;57.33
78014;BME280;67222;50.182;8.734;2023-07-13T05:25:05;100519.91;;;17.88;57.59
78014;BME280;67222;50.182;8.734;2023-07-13T05:27:31;100524.53;;;17.92;58.14
78014;BME280;67222;50.182;8.734;2023-07-13T05:29:56;100525.72;;;18.01;55.73
78014;BME280;67222;50.182;8.734;2023-07-13T05:32:22;100519.91;;;18.09;54.82
78014;BME280;67222;50.182;8.734;2023-07-13T05:34:47;100521.41;;;18.22;53.59
78014;BME280;67222;50.182;8.734;2023-07-13T05:37:12;100526.66;;;18.34;53.74
78014;BME280;67222;50.182;8.734;2023-07-13T05:39:37;100524.84;;;18.39;53.96
78014;BME280;67222;50.182;8.734;2023-07-13T05:42:03;100531.03;;;18.40;53.51
78014;BME280;67222;50.182;8.734;2023-07-13T05:44:28;100526.66;;;18.34;54.20
78014;BME280;67222;50.182;8.734;2023-07-13T05:46:54;100528.94;;;18.42;53.12
78014;BME280;67222;50.182;8.734;2023-07-13T05:49:21;100531.72;;;18.52;52.08
78014;BME280;67222;50.182;8.734;2023-07-13T05:51:47;100535.00;;;18.54;52.54
78014;BME280;67222;50.182;8.734;2023-07-13T05:54:12;100534.06;;;18.65;51.81
78014;BME280;67222;50.182;8.734;2023-07-13T05:56:37;100536.88;;;18.75;52.88
78014;BME280;67222;50.182;8.734;2023-07-13T05:59:03;100537.94;;;18.74;51.44
78014;BME280;67222;50.182;8.734;2023-07-13T06:01:29;100537.50;;;18.83;50.90
78014;BME280;67222;50.182;8.734;2023-07-13T06:03:55;100539.47;;;18.92;51.83
78014;BME280;67222;50.182;8.734;2023-07-13T06:06:20;100537.56;;;18.93;50.59
78014;BME280;67222;50.182;8.734;2023-07-13T06:08:45;100534.13;;;18.97;50.72
78014;BME280;67222;50.182;8.734;2023-07-13T06:11:17;100539.28;;;18.99;50.00
78014;BME280;67222;50.182;8.734;2023-07-13T06:13:44;100539.66;;;19.13;49.68
78014;BME280;67222;50.182;8.734;2023-07-13T06:16:10;100544.34;;;19.22;49.52
78014;BME280;67222;50.182;8.734;2023-07-13T06:18:36;100542.16;;;19.19;49.59
78014;BME280;67222;50.182;8.734;2023-07-13T06:21:10;100540.88;;;19.32;49.14
78014;BME280;67222;50.182;8.734;2023-07-13T06:23:36;100550.41;;;19.34;48.94
78014;BME280;67222;50.182;8.734;2023-07-13T06:26:02;100552.91;;;19.46;48.74
78014;BME280;67222;50.182;8.734;2023-07-13T06:28:29;100560.72;;;19.43;48.30
78014;BME280;67222;50.182;8.734;2023-07-13T06:30:55;100556.41;;;19.47;48.45
78014;BME280;67222;50.182;8.734;2023-07-13T06:33:20;100560.19;;;19.46;48.08
78014;BME280;67222;50.182;8.734;2023-07-13T06:35:46;100562.31;;;19.39;47.77
78014;BME280;67222;50.182;8.734;2023-07-13T06:38:11;100560.97;;;19.41;48.41
78014;BME280;67222;50.182;8.734;2023-07-13T06:40:36;100558.16;;;19.58;48.02
78014;BME280;67222;50.182;8.734;2023-07-13T06:43:01;100566.22;;;19.53;47.50
78014;BME280;67222;50.182;8.734;2023-07-13T06:45:27;100565.22;;;19.64;48.39
78014;BME280;67222;50.182;8.734;2023-07-13T06:47:52;100563.34;;;19.64;48.71
78014;BME280;67222;50.182;8.734;2023-07-13T06:50:17;100563.63;;;19.68;49.22
78014;BME280;67222;50.182;8.734;2023-07-13T06:52:43;100568.84;;;19.75;47.72
78014;BME280;67222;50.182;8.734;2023-07-13T06:55:08;100563.19;;;19.81;48.27
78014;BME280;67222;50.182;8.734;2023-07-13T06:57:33;100562.44;;;19.91;47.88
78014;BME280;67222;50.182;8.734;2023-07-13T06:59:59;100568.09;;;19.89;47.58
78014;BME280;67222;50.182;8.734;2023-07-13T07:02:24;100572.75;;;19.94;46.94
78014;BME280;67222;50.182;8.734;2023-07-13T07:04:49;100573.00;;;19.92;47.51
78014;BME280;67222;50.182;8.734;2023-07-13T07:07:15;100568.66;;;19.91;48.03
78014;BME280;67222;50.182;8.734;2023-07-13T07:09:40;100566.03;;;20.07;48.17
78014;BME280;67222;50.182;8.734;2023-07-13T07:12:06;100577.72;;;20.17;47.44
78014;BME280;67222;50.182;8.734;2023-07-13T07:14:31;100586.16;;;20.26;46.07
78014;BME280;67222;50.182;8.734;2023-07-13T07:16:57;100580.47;;;20.22;46.58
78014;BME280;67222;50.182;8.734;2023-07-13T07:19:23;100586.97;;;20.26;46.62
78014;BME280;67222;50.182;8.734;2023-07-13T07:21:49;100580.50;;;20.33;46.24
78014;BME280;67222;50.182;8.734;2023-07-13T07:24:14;100578.38;;;20.40;45.57
78014;BME280;67222;50.182;8.734;2023-07-13T07:26:40;100586.81;;;20.43;46.60
78014;BME280;67222;50.182;8.734;2023-07-13T07:29:06;100577.09;;;20.47;44.92
78014;BME280;67222;50.182;8.734;2023-07-13T07:31:31;100589.56;;;20.53;45.51
78014;BME280;67222;50.182;8.734;2023-07-13T07:33:56;100582.78;;;20.51;44.86
78014;BME280;67222;50.182;8.734;2023-07-13T07:36:21;100578.72;;;20.53;46.02
78014;BME280;67222;50.182;8.734;2023-07-13T07:38:47;100579.28;;;20.61;44.92
78014;BME280;67222;50.182;8.734;2023-07-13T07:41:12;100579.88;;;20.68;44.43
78014;BME280;67222;50.182;8.734;2023-07-13T07:43:37;100577.16;;;20.78;45.07
78014;BME280;67222;50.182;8.734;2023-07-13T07:46:03;100584.22;;;20.79;44.91
78014;BME280;67222;50.182;8.734;2023-07-13T07:48:29;100583.94;;;20.80;43.05
78014;BME280;67222;50.182;8.734;2023-07-13T07:50:54;100591.00;;;20.81;44.10
78014;BME280;67222;50.182;8.734;2023-07-13T07:53:19;100577.75;;;20.95;44.08
78014;BME280;67222;50.182;8.734;2023-07-13T07:55:45;100570.44;;;21.06;44.27
78014;BME280;67222;50.182;8.734;2023-07-13T07:58:10;100572.63;;;21.14;42.67
78014;BME280;67222;50.182;8.734;2023-07-13T08:00:36;100572.91;;;21.23;42.70
78014;BME280;67222;50.182;8.734;2023-07-13T08:03:02;100569.09;;;21.24;42.04
78014;BME280;67222;50.182;8.734;2023-07-13T08:05:27;100564.25;;;21.36;43.43
78014;BME280;67222;50.182;8.734;2023-07-13T08:07:53;100567.25;;;21.44;42.18
78014;BME280;67222;50.182;8.734;2023-07-13T08:10:19;100574.00;;;21.52;43.29
78014;BME280;67222;50.182;8.734;2023-07-13T08:12:44;100574.03;;;21.57;41.72
78014;BME280;67222;50.182;8.734;2023-07-13T08:15:12;100579.69;;;21.56;42.44
78014;BME280;67222;50.182;8.734;2023-07-13T08:17:37;100578.88;;;21.65;42.70
78014;BME280;67222;50.182;8.734;2023-07-13T08:20:03;100582.16;;;21.62;44.48
78014;BME280;67222;50.182;8.734;2023-07-13T08:22:29;100580.53;;;21.61;40.60
78014;BME280;67222;50.182;8.734;2023-07-13T08:24:54;100577.81;;;21.61;40.58
78014;BME280;67222;50.182;8.734;2023-07-13T08:27:23;100578.03;;;21.75;40.55
78014;BME280;67222;50.182;8.734;2023-07-13T08:29:50;100572.63;;;21.70;41.31
78014;BME280;67222;50.182;8.734;2023-07-13T08:32:15;100574.22;;;21.91;42.23
78014;BME280;67222;50.182;8.734;2023-07-13T08:34:41;100576.94;;;22.06;40.48
78014;BME280;67222;50.182;8.734;2023-07-13T08:37:06;100577.47;;;22.14;40.57
78014;BME280;67222;50.182;8.734;2023-07-13T08:39:32;100579.34;;;22.18;39.24
78014;BME280;67222;50.182;8.734;2023-07-13T08:42:02;100571.44;;;22.22;39.50
78014;BME280;67222;50.182;8.734;2023-07-13T08:47:21;100580.09;;;22.34;40.02
78014;BME280;67222;50.182;8.734;2023-07-13T08:49:48;100575.47;;;22.34;38.64
78014;BME280;67222;50.182;8.734;2023-07-13T08:52:32;100578.75;;;22.31;38.68
78014;BME280;67222;50.182;8.734;2023-07-13T08:55:26;100582.50;;;22.41;38.34
78014;BME280;67222;50.182;8.734;2023-07-13T08:57:56;100568.03;;;22.55;38.59
78014;BME280;67222;50.182;8.734;2023-07-13T09:00:34;100568.00;;;22.60;38.88
78014;BME280;67222;50.182;8.734;2023-07-13T09:03:05;100569.31;;;22.68;38.51
78014;BME280;67222;50.182;8.734;2023-07-13T09:05:41;100566.53;;;22.88;37.84
78014;BME280;67222;50.182;8.734;2023-07-13T09:11:43;100568.81;;;23.10;38.90
78014;BME280;67222;50.182;8.734;2023-07-13T09:16:48;100578.75;;;22.86;37.33
78014;BME280;67222;50.182;8.734;2023-07-13T09:19:25;100568.94;;;22.95;39.06
78014;BME280;67222;50.182;8.734;2023-07-13T09:21:52;100562.63;;;23.00;36.81
78014;BME280;67222;50.182;8.734;2023-07-13T09:27:17;100567.97;;;23.15;39.69
78014;BME280;67222;50.182;8.734;2023-07-13T09:29:54;100563.63;;;23.14;36.10
78014;BME280;67222;50.182;8.734;2023-07-13T09:32:24;100567.56;;;23.32;36.47
78014;BME280;67222;50.182;8.734;2023-07-13T09:34:52;100565.09;;;23.35;36.50
78014;BME280;67222;50.182;8.734;2023-07-13T09:37:24;100563.38;;;23.44;37.61
78014;BME280;67222;50.182;8.734;2023-07-13T09:39:54;100559.94;;;23.34;37.12
78014;BME280;67222;50.182;8.734;2023-07-13T09:42:22;100555.97;;;23.50;36.01
78014;BME280;67222;50.182;8.734;2023-07-13T09:44:51;100564.44;;;23.48;36.13
78014;BME280;67222;50.182;8.734;2023-07-13T09:47:19;100558.41;;;23.51;35.28
78014;BME280;67222;50.182;8.734;2023-07-13T09:49:47;100562.63;;;23.68;35.60
78014;BME280;67222;50.182;8.734;2023-07-13T09:52:15;100547.25;;;23.82;34.21
78014;BME280;67222;50.182;8.734;2023-07-13T09:54:44;100558.13;;;23.53;35.54
78014;BME280;67222;50.182;8.734;2023-07-13T09:57:23;100549.19;;;23.76;34.96
78014;BME280;67222;50.182;8.734;2023-07-13T09:59:50;100558.69;;;23.79;34.83
78014;BME280;67222;50.182;8.734;2023-07-13T10:02:35;100562.50;;;23.83;34.05
78014;BME280;67222;50.182;8.734;2023-07-13T10:05:07;100563.69;;;23.96;35.21
78014;BME280;67222;50.182;8.734;2023-07-13T10:07:39;100562.28;;;24.03;35.68
78014;BME280;67222;50.182;8.734;2023-07-13T10:10:18;100551.31;;;24.08;33.46
78014;BME280;67222;50.182;8.734;2023-07-13T10:12:45;100553.66;;;24.15;34.12
78014;BME280;67222;50.182;8.734;2023-07-13T10:15:19;100547.78;;;24.32;34.70
78014;BME280;67222;50.182;8.734;2023-07-13T10:17:46;100559.88;;;24.44;34.60
78014;BME280;67222;50.182;8.734;2023-07-13T10:20:12;100548.19;;;24.63;34.52
78014;BME280;67222;50.182;8.734;2023-07-13T10:23:00;100552.66;;;24.54;35.57
78014;BME280;67222;50.182;8.734;2023-07-13T10:25:36;100565.47;;;24.53;33.90
78014;BME280;67222;50.182;8.734;2023-07-13T10:28:11;100555.69;;;24.52;33.64
78014;BME280;67222;50.182;8.734;2023-07-13T10:30:43;100552.97;;;24.71;34.40
78014;BME280;67222;50.182;8.734;2023-07-13T10:33:12;100550.63;;;24.83;33.63
78014;BME280;67222;50.182;8.734;2023-07-13T10:35:41;100552.75;;;24.86;33.82
78014;BME280;67222;50.182;8.734;2023-07-13T10:38:11;100557.09;;;24.87;32.81
78014;BME280;67222;50.182;8.734;2023-07-13T10:40:39;100559.88;;;24.44;34.11
78014;BME280;67222;50.182;8.734;2023-07-13T10:43:34;100555.69;;;24.52;34.39
78014;BME280;67222;50.182;8.734;2023-07-13T10:46:03;100561.22;;;24.47;33.54
78014;BME280;67222;50.182;8.734;2023-07-13T10:48:30;100556.41;;;24.39;33.45
78014;BME280;67222;50.182;8.734;2023-07-13T10:50:59;100557.88;;;24.31;33.35
78014;BME280;67222;50.182;8.734;2023-07-13T10:53:35;100554.44;;;24.21;34.21
78014;BME280;67222;50.182;8.734;2023-07-13T10:56:03;100560.22;;;24.14;34.26
78014;BME280;67222;50.182;8.734;2023-07-13T10:58:42;100563.19;;;23.94;34.84
78014;BME280;67222;50.182;8.734;2023-07-13T11:03:37;100566.25;;;24.11;34.06
78014;BME280;67222;50.182;8.734;2023-07-13T11:09:07;100564.03;;;24.13;33.80
78014;BME280;67222;50.182;8.734;2023-07-13T11:11:43;100554.31;;;24.31;36.80
78014;BME280;67222;50.182;8.734;2023-07-13T11:14:30;100561.81;;;24.63;35.35
78014;BME280;67222;50.182;8.734;2023-07-13T11:16:56;100544.78;;;24.90;33.21
78014;BME280;67222;50.182;8.734;2023-07-13T11:24:57;100545.78;;;25.31;32.57
78014;BME280;67222;50.182;8.734;2023-07-13T11:30:22;100541.22;;;25.27;31.78
78014;BME280;67222;50.182;8.734;2023-07-13T11:35:32;100549.44;;;25.08;31.86
78014;BME280;67222;50.182;8.734;2023-07-13T11:37:58;100551.63;;;24.87;32.39
78014;BME280;67222;50.182;8.734;2023-07-13T11:40:26;100546.13;;;24.73;34.34
78014;BME280;67222;50.182;8.734;2023-07-13T11:43:01;100552.97;;;24.71;34.71
78014;BME280;67222;50.182;8.734;2023-07-13T11:45:27;100543.97;;;24.52;33.66
78014;BME280;67222;50.182;8.734;2023-07-13T11:47:53;100550.91;;;24.44;33.91
78014;BME280;67222;50.182;8.734;2023-07-13T11:50:23;100545.69;;;24.24;35.46
78014;BME280;67222;50.182;8.734;2023-07-13T11:52:50;100541.47;;;24.36;34.97
78014;BME280;67222;50.182;8.734;2023-07-13T11:55:18;100543.03;;;24.61;33.99
78014;BME280;67222;50.182;8.734;2023-07-13T11:58:00;100541.75;;;24.54;34.88
78014;BME280;67222;50.182;8.734;2023-07-13T12:00:29;100547.56;;;24.47;34.16
78014;BME280;67222;50.182;8.734;2023-07-13T12:02:59;100548.91;;;24.26;34.31
78014;BME280;67222;50.182;8.734;2023-07-13T12:05:26;100551.31;;;24.08;33.74
78014;BME280;67222;50.182;8.734;2023-07-13T12:07:51;100548.72;;;24.17;33.47
78014;BME280;67222;50.182;8.734;2023-07-13T12:10:19;100551.66;;;24.26;35.09
78014;BME280;67222;50.182;8.734;2023-07-13T12:12:58;100551.00;;;24.34;33.86
78014;BME280;67222;50.182;8.734;2023-07-13T12:15:45;100556.72;;;24.37;34.46
78014;BME280;67222;50.182;8.734;2023-07-13T12:18:22;100543.81;;;24.43;33.66
78014;BME280;67222;50.182;8.734;2023-07-13T12:20:50;100553.09;;;24.42;33.78
78014;BME280;67222;50.182;8.734;2023-07-13T12:23:24;100554.81;;;24.38;33.08
78014;BME280;67222;50.182;8.734;2023-07-13T12:25:51;100544.34;;;24.21;32.91
78014;BME280;67222;50.182;8.734;2023-07-13T12:28:32;100554.09;;;24.03;34.38
78014;BME280;67222;50.182;8.734;2023-07-13T12:30:59;100553.50;;;24.06;35.51
78014;BME280;67222;50.182;8.734;2023-07-13T12:33:28;100551.25;;;24.13;35.50
78014;BME280;67222;50.182;8.734;2023-07-13T12:35:53;100560.47;;;24.17;35.46
78014;BME280;67222;50.182;8.734;2023-07-13T12:38:19;100562.03;;;24.24;34.88
78014;BME280;67222;50.182;8.734;2023-07-13T12:40:49;100558.97;;;24.30;32.69
78014;BME280;67222;50.182;8.734;2023-07-13T12:43:15;100563.03;;;24.33;34.17
78014;BME280;67222;50.182;8.734;2023-07-13T12:46:04;100558.38;;;24.33;34.33
78014;BME280;67222;50.182;8.734;2023-07-13T12:48:30;100557.38;;;24.48;36.47
78014;BME280;67222;50.182;8.734;2023-07-13T12:51:03;100561.91;;;24.76;36.15
78014;BME280;67222;50.182;8.734;2023-07-13T12:53:30;100562.41;;;24.79;34.09
78014;BME280;67222;50.182;8.734;2023-07-13T12:55:58;100562.25;;;24.70;31.78
78014;BME280;67222;50.182;8.734;2023-07-13T12:58:30;100563.34;;;24.50;32.04
78014;BME280;67222;50.182;8.734;2023-07-13T13:00:58;100568.88;;;24.45;35.21
78014;BME280;67222;50.182;8.734;2023-07-13T13:03:46;100556.75;;;24.32;32.25
78014;BME280;67222;50.182;8.734;2023-07-13T13:08:49;100565.78;;;24.28;35.35
78014;BME280;67222;50.182;8.734;2023-07-13T13:11:15;100567.78;;;24.22;32.60
78014;BME280;67222;50.182;8.734;2023-07-13T13:13:41;100567.53;;;24.19;33.51
78014;BME280;67222;50.182;8.734;2023-07-13T13:18:55;100570.09;;;24.10;32.54
78014;BME280;67222;50.182;8.734;2023-07-13T13:21:24;100573.09;;;24.08;35.87
78014;BME280;67222;50.182;8.734;2023-07-13T13:23:51;100577.81;;;24.03;33.17
78014;BME280;67222;50.182;8.734;2023-07-13T13:26:18;100570.72;;;24.02;32.82
78014;BME280;67222;50.182;8.734;2023-07-13T13:28:44;100575.88;;;24.03;34.24
78014;BME280;67222;50.182;8.734;2023-07-13T13:31:10;100574.13;;;24.12;35.88
78014;BME280;67222;50.182;8.734;2023-07-13T13:33:41;100580.47;;;24.32;37.28
78014;BME280;67222;50.182;8.734;2023-07-13T13:36:19;100563.84;;;24.33;33.63
78014;BME280;67222;50.182;8.734;2023-07-13T13:38:46;100582.09;;;24.33;36.12
78014;BME280;67222;50.182;8.734;2023-07-13T13:41:13;100586.34;;;24.44;37.97
78014;BME280;67222;50.182;8.734;2023-07-13T13:43:39;100576.66;;;24.75;34.64
78014;BME280;67222;50.182;8.734;2023-07-13T13:46:16;100584.41;;;25.06;34.27
78014;BME280;67222;50.182;8.734;2023-07-13T13:48:44;100578.19;;;25.19;34.35
78014;BME280;67222;50.182;8.734;2023-07-13T13:51:15;100566.00;;;25.30;35.15
78014;BME280;67222;50.182;8.734;2023-07-13T13:53:41;100574.22;;;25.44;32.87
78014;BME280;67222;50.182;8.734;2023-07-13T13:56:07;100586.09;;;25.53;34.46
78014;BME280;67222;50.182;8.734;2023-07-13T13:58:33;100570.28;;;25.36;33.67
78014;BME280;67222;50.182;8.734;2023-07-13T14:00:58;100585.63;;;25.32;33.97
78014;BME280;67222;50.182;8.734;2023-07-13T14:03:24;100586.38;;;25.19;31.41
78014;BME280;67222;50.182;8.734;2023-07-13T14:05:49;100590.00;;;25.15;34.51
78014;BME280;67222;50.182;8.734;2023-07-13T14:08:19;100580.03;;;25.05;33.42
78014;BME280;67222;50.182;8.734;2023-07-13T14:10:48;100584.91;;;25.08;35.66
78014;BME280;67222;50.182;8.734;2023-07-13T14:13:30;100585.97;;;25.12;35.66
78014;BME280;67222;50.182;8.734;2023-07-13T14:15:57;100589.03;;;25.05;33.03
78014;BME280;67222;50.182;8.734;2023-07-13T14:18:24;100592.66;;;25.01;34.52
78014;BME280;67222;50.182;8.734;2023-07-13T14:20:50;100586.91;;;25.02;35.14
78014;BME280;67222;50.182;8.734;2023-07-13T14:23:17;100583.59;;;25.05;36.67
78014;BME280;67222;50.182;8.734;2023-07-13T14:25:44;100586.31;;;25.05;34.24
78014;BME280;67222;50.182;8.734;2023-07-13T14:28:21;100581.44;;;25.02;34.29
78014;BME280;67222;50.182;8.734;2023-07-13T14:30:48;100588.03;;;25.01;35.54
78014;BME280;67222;50.182;8.734;2023-07-13T14:33:13;100594.28;;;25.02;36.33
78014;BME280;67222;50.182;8.734;2023-07-13T14:35:39;100596.56;;;24.95;34.46
78014;BME280;67222;50.182;8.734;2023-07-13T14:38:04;100592.25;;;24.89;33.75
78014;BME280;67222;50.182;8.734;2023-07-13T14:40:31;100596.97;;;24.64;34.05
78014;BME280;67222;50.182;8.734;2023-07-13T14:42:57;100596.66;;;24.47;33.73
78014;BME280;67222;50.182;8.734;2023-07-13T14:45:23;100602.81;;;24.34;35.27
78014;BME280;67222;50.182;8.734;2023-07-13T14:47:49;100604.41;;;24.35;35.72
78014;BME280;67222;50.182;8.734;2023-07-13T14:50:15;100604.41;;;24.35;35.71
78014;BME280;67222;50.182;8.734;2023-07-13T14:52:42;100611.16;;;24.42;33.71
78014;BME280;67222;50.182;8.734;2023-07-13T14:55:16;100609.75;;;24.45;36.11
78014;BME280;67222;50.182;8.734;2023-07-13T14:57:42;100606.88;;;24.36;34.44
78014;BME280;67222;50.182;8.734;2023-07-13T15:00:20;100606.72;;;24.23;34.95
78014;BME280;67222;50.182;8.734;2023-07-13T15:02:55;100601.38;;;24.12;34.58
78014;BME280;67222;50.182;8.734;2023-07-13T15:05:24;100604.75;;;24.04;35.84
78014;BME280;67222;50.182;8.734;2023-07-13T15:07:51;100599.06;;;24.25;34.49
78014;BME280;67222;50.182;8.734;2023-07-13T15:10:23;100598.94;;;24.40;38.13
78014;BME280;67222;50.182;8.734;2023-07-13T15:12:51;100594.47;;;24.87;33.61
78014;BME280;67222;50.182;8.734;2023-07-13T15:15:18;100601.56;;;25.25;32.83
78014;BME280;67222;50.182;8.734;2023-07-13T15:17:45;100592.47;;;25.49;31.55
78014;BME280;67222;50.182;8.734;2023-07-13T15:20:23;100597.19;;;25.43;32.41
78014;BME280;67222;50.182;8.734;2023-07-13T15:22:50;100606.28;;;25.39;31.18
78014;BME280;67222;50.182;8.734;2023-07-13T15:25:26;100604.59;;;25.24;32.87
78014;BME280;67222;50.182;8.734;2023-07-13T15:27:53;100615.97;;;25.12;32.25
78014;BME280;67222;50.182;8.734;2023-07-13T15:30:19;100615.00;;;25.03;34.58
78014;BME280;67222;50.182;8.734;2023-07-13T15:32:46;100608.28;;;24.95;33.70
78014;BME280;67222;50.182;8.734;2023-07-13T15:35:15;100614.50;;;25.01;32.95
78014;BME280;67222;50.182;8.734;2023-07-13T15:37:41;100614.16;;;24.84;33.00
78014;BME280;67222;50.182;8.734;2023-07-13T15:40:07;100612.16;;;24.70;34.46
78014;BME280;67222;50.182;8.734;2023-07-13T15:42:33;100605.75;;;24.61;34.08
78014;BME280;67222;50.182;8.734;2023-07-13T15:45:01;100609.56;;;24.60;33.54
78014;BME280;67222;50.182;8.734;2023-07-13T15:47:27;100601.91;;;24.62;32.53
78014;BME280;67222;50.182;8.734;2023-07-13T15:49:52;100597.34;;;24.58;33.89
78014;BME280;67222;50.182;8.734;2023-07-13T15:52:21;100600.38;;;24.56;36.03
78014;BME280;67222;50.182;8.734;2023-07-13T15:54:48;100600.38;;;24.56;33.59
78014;BME280;67222;50.182;8.734;2023-07-13T15:57:14;100594.72;;;24.48;34.59
78014;BME280;67222;50.182;8.734;2023-07-13T15:59:41;100591.94;;;24.53;35.35
78014;BME280;67222;50.182;8.734;2023-07-13T16:02:19;100599.31;;;24.52;34.68
78014;BME280;67222;50.182;8.734;2023-07-13T16:04:46;100592.75;;;24.53;34.55
78014;BME280;67222;50.182;8.734;2023-07-13T16:07:13;100596.13;;;24.45;33.86
78014;BME280;67222;50.182;8.734;2023-07-13T16:09:40;100592.19;;;24.32;34.07
78014;BME280;67222;50.182;8.734;2023-07-13T16:12:13;100592.59;;;24.21;34.21
78014;BME280;67222;50.182;8.734;2023-07-13T16:14:39;100594.72;;;24.24;34.67
78014;BME280;67222;50.182;8.734;2023-07-13T16:17:08;100592.88;;;24.19;34.94
78014;BME280;67222;50.182;8.734;2023-07-13T16:19:33;100593.72;;;24.14;35.22
78014;BME280;67222;50.182;8.734;2023-07-13T16:21:59;100593.72;;;24.14;35.61
78014;BME280;67222;50.182;8.734;2023-07-13T16:24:26;100590.16;;;24.19;34.17
78014;BME280;67222;50.182;8.734;2023-07-13T16:26:52;100582.13;;;24.28;34.60
78014;BME280;67222;50.182;8.734;2023-07-13T16:29:21;100587.59;;;24.28;36.77
78014;BME280;67222;50.182;8.734;2023-07-13T16:32:06;100585.97;;;24.27;36.71
78014;BME280;67222;50.182;8.734;2023-07-13T16:34:35;100584.00;;;24.32;34.31
78014;BME280;67222;50.182;8.734;2023-07-13T16:37:22;100594.09;;;24.32;34.96
78014;BME280;67222;50.182;8.734;2023-07-13T16:39:52;100585.44;;;24.25;34.69
78014;BME280;67222;50.182;8.734;2023-07-13T16:42:18;100586.31;;;24.20;34.42
78014;BME280;67222;50.182;8.734;2023-07-13T16:44:44;100592.06;;;24.19;35.37
78014;BME280;67222;50.182;8.734;2023-07-13T16:47:13;100589.88;;;24.21;34.67
78014;BME280;67222;50.182;8.734;2023-07-13T16:49:39;100589.28;;;24.24;33.59
78014;BME280;67222;50.182;8.734;2023-07-13T16:52:05;100593.69;;;24.20;36.23
78014;BME280;67222;50.182;8.734;2023-07-13T16:54:34;100589.88;;;24.21;34.61
78014;BME280;67222;50.182;8.734;2023-07-13T16:57:03;100591.66;;;24.30;33.74
78014;BME280;67222;50.182;8.734;2023-07-13T16:59:34;100590.22;;;24.38;35.34
78014;BME280;67222;50.182;8.734;2023-07-13T17:02:01;100592.88;;;24.43;34.87
78014;BME280;67222;50.182;8.734;2023-07-13T17:04:30;100596.31;;;24.30;34.58
78014;BME280;67222;50.182;8.734;2023-07-13T17:06:56;100586.44;;;24.34;34.16
78014;BME280;67222;50.182;8.734;2023-07-13T17:09:22;100590.56;;;24.31;33.81
78014;BME280;67222;50.182;8.734;2023-07-13T17:11:51;100600.16;;;24.29;34.14
78014;BME280;67222;50.182;8.734;2023-07-13T17:14:22;100592.00;;;24.24;34.69
78014;BME280;67222;50.182;8.734;2023-07-13T17:16:54;100592.09;;;24.13;36.41
78014;BME280;67222;50.182;8.734;2023-07-13T17:19:26;100592.09;;;24.13;36.07
78014;BME280;67222;50.182;8.734;2023-07-13T17:21:52;100592.41;;;24.12;35.83
78014;BME280;67222;50.182;8.734;2023-07-13T17:24:25;100592.69;;;24.10;34.43
78014;BME280;67222;50.182;8.734;2023-07-13T17:26:51;100599.66;;;24.22;35.49
78014;BME280;67222;50.182;8.734;2023-07-13T17:29:17;100592.63;;;24.15;33.66
78014;BME280;67222;50.182;8.734;2023-07-13T17:31:43;100592.97;;;24.09;34.29
78014;BME280;67222;50.182;8.734;2023-07-13T17:34:15;100588.94;;;24.06;36.03
78014;BME280;67222;50.182;8.734;2023-07-13T17:36:43;100592.25;;;24.03;36.26
78014;BME280;67222;50.182;8.734;2023-07-13T17:39:19;100585.38;;;24.06;34.78
78014;BME280;67222;50.182;8.734;2023-07-13T17:41:45;100596.88;;;24.03;35.39
78014;BME280;67222;50.182;8.734;2023-07-13T17:44:13;100593.91;;;23.99;35.79
78014;BME280;67222;50.182;8.734;2023-07-13T17:46:39;100593.94;;;23.94;35.14
78014;BME280;67222;50.182;8.734;2023-07-13T17:49:05;100601.66;;;23.87;37.02
78014;BME280;67222;50.182;8.734;2023-07-13T17:51:31;100599.53;;;23.84;34.27
78014;BME280;67222;50.182;8.734;2023-07-13T17:53:57;100602.63;;;23.72;36.39
78014;BME280;67222;50.182;8.734;2023-07-13T17:56:23;100600.75;;;23.68;35.19
78014;BME280;67222;50.182;8.734;2023-07-13T17:58:50;100591.84;;;23.62;34.63
78014;BME280;67222;50.182;8.734;2023-07-13T18:01:18;100608.44;;;23.55;37.50